Time;durP1;ratioP1;P1;durP2;ratioP2;P2;SDS_P1;SDS_P2;PMS_P1;PMS_P2;Temp;Humidity;BMP_temperature;BMP_pressure;BME280_temperature;BME280_humidity;BME280_pressure;Samples;Min_cycle;Max_cycle;Signal;HPM_P1;HPM_P2
2023/11/10 00:02:08;;;;;;;2.08;1.75;;;8.10;99.90;;;;;;5067274;28;20041;-90
2023/11/10 00:04:37;;;;;;;1.67;1.48;;;8.20;99.90;;;;;;5068764;28;20024;-90
2023/11/10 00:07:04;;;;;;;1.52;1.42;;;8.20;99.90;;;;;;5070552;28;20545;-90
2023/11/10 00:09:31;;;;;;;1.85;1.05;;;8.30;99.90;;;;;;5065835;28;20053;-90
2023/11/10 00:11:57;;;;;;;2.42;2.10;;;8.30;99.90;;;;;;5064801;28;20029;-90
2023/11/10 00:14:22;;;;;;;2.03;1.33;;;8.30;99.90;;;;;;5044752;28;20025;-92
2023/11/10 00:16:48;;;;;;;1.60;1.50;;;8.30;99.90;;;;;;5039947;28;20048;-91
2023/11/10 00:19:14;;;;;;;1.63;1.27;;;8.40;99.90;;;;;;5057910;28;20025;-91
2023/11/10 00:21:41;;;;;;;1.40;1.30;;;8.40;99.90;;;;;;5058518;28;20051;-90
2023/11/10 00:24:07;;;;;;;1.13;1.02;;;8.40;99.90;;;;;;5057862;28;20029;-90
2023/11/10 00:26:34;;;;;;;2.45;2.05;;;8.40;99.90;;;;;;5056991;28;20025;-90
2023/11/10 00:29:00;;;;;;;1.83;1.35;;;8.40;99.90;;;;;;5057769;28;20105;-89
2023/11/10 00:31:29;;;;;;;1.33;1.23;;;8.50;99.90;;;;;;5058707;28;20408;-90
2023/11/10 00:33:55;;;;;;;1.60;1.50;;;8.40;99.90;;;;;;5039963;28;20094;-91
2023/11/10 00:36:21;;;;;;;1.83;1.70;;;8.50;99.90;;;;;;5057944;28;20551;-90
2023/11/10 00:38:47;;;;;;;1.23;1.10;;;8.50;99.90;;;;;;5058900;28;20052;-89
2023/11/10 00:41:14;;;;;;;2.97;1.67;;;8.40;99.90;;;;;;5063164;28;20421;-90
2023/11/10 00:43:40;;;;;;;1.67;1.05;;;8.50;99.90;;;;;;5059127;28;20029;-91
2023/11/10 00:46:09;;;;;;;2.08;1.30;;;8.50;99.90;;;;;;5062941;28;20380;-91
2023/11/10 00:48:34;;;;;;;2.15;1.27;;;8.40;99.90;;;;;;5062080;28;20552;-90
2023/11/10 00:51:03;;;;;;;2.35;2.15;;;8.40;99.90;;;;;;5060724;28;20035;-90
2023/11/10 00:53:29;;;;;;;2.63;0.70;;;8.30;99.90;;;;;;5059339;28;20561;-90
2023/11/10 00:55:54;;;;;;;2.28;1.33;;;8.30;99.90;;;;;;5059322;28;20084;-91
2023/11/10 00:58:20;;;;;;;1.38;1.27;;;8.30;99.90;;;;;;5061501;28;20086;-91
2023/11/10 01:00:46;;;;;;;2.97;2.15;;;8.30;99.90;;;;;;5043971;28;20090;-90
2023/11/10 01:03:11;;;;;;;1.33;1.23;;;8.30;99.90;;;;;;5062108;28;20088;-91
2023/11/10 01:05:37;;;;;;;2.30;2.10;;;8.30;99.90;;;;;;5044053;28;20025;-90
2023/11/10 01:08:05;;;;;;;1.52;1.42;;;8.20;99.90;;;;;;5062014;28;20048;-90
2023/11/10 01:10:34;;;;;;;1.92;1.70;;;8.20;99.90;;;;;;5059058;28;20017;-91
2023/11/10 01:13:00;;;;;;;1.20;1.10;;;8.20;99.90;;;;;;5059803;28;20025;-90
2023/11/10 01:15:26;;;;;;;2.13;1.92;;;8.20;99.90;;;;;;5060114;28;20028;-90
2023/11/10 01:17:52;;;;;;;2.40;1.88;;;8.20;99.90;;;;;;5041707;28;20028;-90
2023/11/10 01:20:17;;;;;;;1.30;1.08;;;8.20;99.90;;;;;;5054097;28;20033;-90
2023/11/10 01:22:43;;;;;;;2.35;1.67;;;8.20;99.90;;;;;;5060767;28;20017;-90
2023/11/10 01:25:12;;;;;;;1.80;1.70;;;8.30;99.90;;;;;;5060857;28;20527;-90
2023/11/10 01:27:37;;;;;;;1.77;1.63;;;8.20;99.90;;;;;;5062089;28;20100;-90
2023/11/10 01:30:03;;;;;;;2.78;1.55;;;8.20;99.90;;;;;;5060362;28;20592;-89
2023/11/10 01:32:29;;;;;;;1.35;1.25;;;8.20;99.90;;;;;;5061231;28;20033;-89
2023/11/10 01:34:55;;;;;;;1.23;1.13;;;8.30;99.90;;;;;;5043834;28;20025;-90
2023/11/10 01:37:22;;;;;;;1.35;1.27;;;8.20;99.90;;;;;;5059870;28;20029;-88
2023/11/10 01:39:47;;;;;;;2.08;1.98;;;8.20;99.90;;;;;;5058939;28;20108;-90
2023/11/10 01:42:14;;;;;;;1.30;1.20;;;8.20;99.90;;;;;;5059735;28;20045;-90
2023/11/10 01:44:39;;;;;;;1.23;1.13;;;8.30;99.90;;;;;;5060809;28;20017;-91
2023/11/10 01:47:09;;;;;;;1.52;1.42;;;8.20;99.90;;;;;;5059856;28;20391;-90
2023/11/10 01:49:34;;;;;;;1.52;1.38;;;8.30;99.90;;;;;;5057396;28;20024;-91
2023/11/10 01:52:02;;;;;;;1.30;1.20;;;8.30;99.90;;;;;;5058000;28;20108;-90
2023/11/10 01:54:38;;;;;;;1.95;1.45;;;8.30;99.90;;;;;;5059814;28;20495;-90
2023/11/10 01:57:04;;;;;;;1.13;1.13;;;8.30;99.90;;;;;;5042036;28;20036;-91
2023/11/10 01:59:36;;;;;;;1.45;1.30;;;8.30;99.90;;;;;;5058979;28;20021;-89
2023/11/10 02:02:09;;;;;;;2.17;0.93;;;8.30;99.90;;;;;;5060570;28;20021;-90
2023/11/10 02:04:36;;;;;;;1.45;0.98;;;8.30;99.90;;;;;;5060406;28;20071;-91
2023/11/10 02:07:02;;;;;;;1.33;1.23;;;8.30;99.90;;;;;;5058802;28;20013;-90
2023/11/10 02:09:28;;;;;;;1.58;1.48;;;8.40;99.90;;;;;;5057922;28;20033;-90
2023/11/10 02:11:54;;;;;;;2.08;1.40;;;8.40;99.90;;;;;;5040470;28;20273;-90
2023/11/10 02:14:19;;;;;;;1.45;1.35;;;8.40;99.90;;;;;;5057579;28;20557;-91
2023/11/10 02:16:45;;;;;;;2.38;1.33;;;8.40;99.90;;;;;;5059233;28;20578;-91
2023/11/10 02:19:15;;;;;;;5.20;1.42;;;8.40;99.90;;;;;;5059184;28;20052;-90
2023/11/10 02:21:41;;;;;;;1.60;1.50;;;8.40;99.90;;;;;;5059356;28;20446;-90
2023/11/10 02:24:10;;;;;;;2.08;1.95;;;8.40;99.90;;;;;;5058896;28;20053;-90
2023/11/10 02:26:41;;;;;;;1.35;0.80;;;8.40;99.90;;;;;;5059818;28;20272;-92
2023/11/10 02:29:07;;;;;;;2.53;2.05;;;8.40;99.90;;;;;;5054393;28;20814;-89
2023/11/10 02:31:34;;;;;;;1.63;1.27;;;8.40;99.90;;;;;;5059315;28;20037;-90
2023/11/10 02:33:59;;;;;;;1.83;1.15;;;8.40;99.90;;;;;;5059662;28;20021;-89
2023/11/10 02:36:29;;;;;;;1.63;0.88;;;8.40;99.90;;;;;;5060423;28;20104;-90
2023/11/10 02:38:54;;;;;;;1.20;1.02;;;8.40;99.90;;;;;;5058661;28;20048;-91
2023/11/10 02:41:20;;;;;;;3.00;1.65;;;8.40;99.90;;;;;;5059342;28;20021;-91
2023/11/10 02:43:46;;;;;;;2.53;1.90;;;8.40;99.90;;;;;;5048129;28;20021;-91
2023/11/10 02:46:12;;;;;;;2.38;1.48;;;8.40;99.90;;;;;;5058480;28;20194;-90
2023/11/10 02:48:38;;;;;;;1.45;1.27;;;8.40;99.90;;;;;;5058656;28;20024;-90
2023/11/10 02:51:04;;;;;;;1.13;1.02;;;8.40;99.90;;;;;;5041676;28;20158;-90
2023/11/10 02:53:29;;;;;;;1.20;1.05;;;8.40;99.90;;;;;;5059944;28;20060;-90
2023/11/10 02:55:55;;;;;;;1.27;1.17;;;8.40;99.90;;;;;;5059397;28;20032;-90
2023/11/10 02:58:21;;;;;;;1.77;0.95;;;8.50;99.90;;;;;;5059352;28;20029;-90
2023/11/10 03:00:47;;;;;;;2.13;0.98;;;8.50;99.90;;;;;;5041561;28;20446;-89
2023/11/10 03:03:14;;;;;;;2.95;1.05;;;8.40;99.90;;;;;;5061269;28;20047;-92
2023/11/10 03:05:40;;;;;;;1.38;1.23;;;8.40;99.90;;;;;;5059411;28;20073;-90
2023/11/10 03:08:06;;;;;;;3.45;1.25;;;8.40;99.90;;;;;;5058806;28;20055;-89
2023/11/10 03:10:32;;;;;;;1.45;1.35;;;8.50;99.90;;;;;;5058628;28;20017;-91
2023/11/10 03:12:58;;;;;;;1.60;1.05;;;8.50;99.90;;;;;;5058681;28;20044;-90
2023/11/10 03:15:24;;;;;;;1.67;1.10;;;8.50;99.90;;;;;;5057547;28;20036;-90
2023/11/10 03:17:50;;;;;;;0.82;0.82;;;8.50;99.90;;;;;;5060102;28;20495;-90
2023/11/10 03:20:15;;;;;;;1.55;1.45;;;8.50;99.90;;;;;;5059046;28;20112;-91
2023/11/10 03:22:42;;;;;;;1.45;0.98;;;8.40;99.90;;;;;;5060036;28;20040;-90
2023/11/10 03:25:08;;;;;;;2.55;1.73;;;8.40;99.90;;;;;;5041045;28;20033;-91
2023/11/10 03:27:34;;;;;;;3.10;2.30;;;8.40;99.90;;;;;;5059228;28;20024;-91
2023/11/10 03:30:00;;;;;;;1.42;1.30;;;8.40;99.90;;;;;;5054721;28;20379;-90
2023/11/10 03:32:28;;;;;;;1.92;1.83;;;8.40;99.90;;;;;;5060058;28;20025;-90
2023/11/10 03:34:54;;;;;;;2.25;2.15;;;8.40;99.90;;;;;;5059019;28;20471;-92
2023/11/10 03:37:19;;;;;;;2.15;2.05;;;8.50;99.90;;;;;;5059489;28;20052;-92
2023/11/10 03:39:45;;;;;;;1.77;1.42;;;8.50;99.90;;;;;;5058900;28;20053;-89
2023/11/10 03:42:11;;;;;;;1.33;1.10;;;8.50;99.90;;;;;;5037533;28;20654;-90
2023/11/10 03:44:37;;;;;;;1.13;1.00;;;8.50;99.90;;;;;;5059448;28;20021;-90
2023/11/10 03:47:02;;;;;;;1.42;1.42;;;8.50;99.90;;;;;;5059228;28;20035;-89
2023/11/10 03:49:28;;;;;;;1.05;1.05;;;8.40;99.90;;;;;;5058937;28;20039;-91
2023/11/10 03:51:54;;;;;;;1.55;1.45;;;8.40;99.90;;;;;;5057901;28;20024;-91
2023/11/10 03:54:20;;;;;;;1.35;1.00;;;8.30;99.90;;;;;;5058420;28;20033;-92
2023/11/10 03:56:46;;;;;;;1.17;1.08;;;8.40;99.90;;;;;;5057269;28;20146;-91
2023/11/10 03:59:12;;;;;;;1.30;1.17;;;8.40;99.90;;;;;;5038882;28;20075;-90
2023/11/10 04:01:39;;;;;;;1.17;1.02;;;8.40;99.90;;;;;;5056784;28;20025;-90
2023/11/10 04:04:07;;;;;;;1.63;1.52;;;8.30;99.90;;;;;;5057484;28;20028;-90
2023/11/10 04:06:33;;;;;;;2.92;1.27;;;8.30;99.90;;;;;;5056526;28;20487;-90
2023/11/10 04:08:59;;;;;;;1.75;1.65;;;8.30;99.90;;;;;;5056389;28;20103;-90
2023/11/10 04:11:24;;;;;;;1.10;1.10;;;8.30;99.90;;;;;;5043514;28;20675;-90
2023/11/10 04:13:50;;;;;;;2.08;1.45;;;8.30;99.90;;;;;;5057859;28;20032;-90
2023/11/10 04:16:20;;;;;;;1.58;1.30;;;8.30;99.90;;;;;;5058405;28;20028;-90
2023/11/10 04:18:50;;;;;;;1.65;1.52;;;8.30;99.90;;;;;;5057498;28;20024;-91
2023/11/10 04:21:29;;;;;;;2.55;1.40;;;8.20;99.90;;;;;;5032439;28;20027;-91
2023/11/10 04:23:58;;;;;;;2.15;1.00;;;8.20;99.90;;;;;;5058349;28;20051;-90
2023/11/10 04:26:24;;;;;;;1.05;1.05;;;8.10;99.90;;;;;;5058280;28;20036;-89
2023/11/10 04:28:50;;;;;;;1.02;1.02;;;8.00;99.90;;;;;;5057461;28;20025;-89
2023/11/10 04:31:16;;;;;;;1.50;1.10;;;8.00;99.90;;;;;;5058088;28;20053;-90
2023/11/10 04:33:43;;;;;;;1.15;1.08;;;8.00;99.90;;;;;;5057727;28;20036;-91
2023/11/10 04:36:12;;;;;;;0.82;0.82;;;8.00;99.90;;;;;;5056356;28;20398;-89
2023/11/10 04:38:38;;;;;;;1.05;0.82;;;8.00;99.90;;;;;;5055677;28;20052;-90
2023/11/10 04:41:04;;;;;;;1.13;1.10;;;8.00;99.90;;;;;;5063980;28;20025;-90
2023/11/10 04:43:30;;;;;;;2.55;1.13;;;8.00;99.90;;;;;;5054362;28;20035;-92
2023/11/10 04:45:55;;;;;;;1.08;0.98;;;8.00;99.90;;;;;;5059754;28;20237;-91
2023/11/10 04:48:22;;;;;;;2.15;1.30;;;7.90;99.90;;;;;;5057814;28;20028;-90
2023/11/10 04:50:48;;;;;;;2.00;1.23;;;7.80;99.90;;;;;;5058444;28;20025;-89
2023/11/10 04:53:13;;;;;;;1.13;1.13;;;7.80;99.90;;;;;;5058007;28;20085;-90
2023/11/10 04:55:40;;;;;;;1.08;1.00;;;7.80;99.90;;;;;;5058991;28;20032;-90
2023/11/10 04:58:06;;;;;;;1.05;1.02;;;7.80;99.90;;;;;;5057001;28;20057;-91
2023/11/10 05:00:33;;;;;;;1.35;1.25;;;7.80;99.90;;;;;;5059137;28;20092;-91
2023/11/10 05:03:02;;;;;;;1.20;1.15;;;7.70;99.90;;;;;;5059031;28;20029;-92
2023/11/10 05:05:28;;;;;;;1.73;1.63;;;7.80;99.90;;;;;;5058887;28;20499;-89
2023/11/10 05:07:54;;;;;;;4.00;1.92;;;7.70;99.90;;;;;;5057669;28;20032;-92
2023/11/10 05:10:19;;;;;;;1.83;0.88;;;7.70;99.90;;;;;;5060483;28;20040;-92
2023/11/10 05:12:45;;;;;;;1.50;0.93;;;7.70;99.90;;;;;;5060158;28;20033;-91
2023/11/10 05:15:14;;;;;;;1.35;1.25;;;7.70;99.90;;;;;;5042343;28;20120;-92
2023/11/10 05:17:43;;;;;;;2.40;2.10;;;7.70;99.90;;;;;;5058887;28;20044;-91
2023/11/10 05:20:11;;;;;;;1.15;0.98;;;7.70;99.90;;;;;;5058690;28;20418;-92
2023/11/10 05:22:39;;;;;;;0.73;0.73;;;7.70;99.90;;;;;;5058845;28;20353;-91
2023/11/10 05:25:06;;;;;;;1.23;1.13;;;7.60;99.90;;;;;;5060608;28;20158;-91
2023/11/10 05:27:31;;;;;;;1.50;0.95;;;7.70;99.90;;;;;;5062703;28;20025;-92
2023/11/10 05:29:58;;;;;;;1.70;1.40;;;7.60;99.90;;;;;;5062065;28;20024;-90
2023/11/10 05:32:23;;;;;;;3.03;1.17;;;7.60;99.90;;;;;;5063733;28;20056;-91
2023/11/10 05:34:52;;;;;;;1.05;0.90;;;7.60;99.90;;;;;;5063528;28;20044;-91
2023/11/10 05:37:21;;;;;;;1.48;1.38;;;7.60;99.90;;;;;;5072456;28;20025;-92
2023/11/10 05:39:49;;;;;;;1.33;1.10;;;7.70;99.90;;;;;;5065750;28;20025;-90
2023/11/10 05:42:15;;;;;;;1.27;1.17;;;7.70;99.90;;;;;;5061025;28;20021;-91
2023/11/10 05:44:41;;;;;;;1.05;1.05;;;7.60;99.90;;;;;;5062247;28;20021;-90
2023/11/10 05:47:07;;;;;;;3.03;1.15;;;7.60;99.90;;;;;;5062070;28;20603;-93
2023/11/10 05:49:33;;;;;;;1.40;1.23;;;7.60;99.90;;;;;;5061911;28;20029;-90
2023/11/10 05:51:59;;;;;;;1.88;1.10;;;7.60;99.90;;;;;;5061653;28;20106;-91
2023/11/10 05:54:25;;;;;;;1.42;1.15;;;7.60;99.90;;;;;;5060642;28;20032;-90
2023/11/10 05:56:52;;;;;;;2.72;1.15;;;7.60;99.90;;;;;;5060900;28;20025;-90
2023/11/10 05:59:17;;;;;;;2.17;1.08;;;7.60;99.90;;;;;;5060879;28;20036;-91
2023/11/10 06:01:43;;;;;;;1.02;1.02;;;7.60;99.90;;;;;;5061437;28;20017;-91
2023/11/10 06:04:09;;;;;;;1.55;1.35;;;7.60;99.90;;;;;;5062446;28;20017;-91
2023/11/10 06:06:36;;;;;;;3.35;1.13;;;7.50;99.90;;;;;;5063105;28;20024;-91
2023/11/10 06:09:02;;;;;;;1.52;1.42;;;7.50;99.90;;;;;;5062071;28;20040;-91
2023/11/10 06:11:27;;;;;;;2.10;0.90;;;7.50;99.90;;;;;;5042989;28;20033;-91
2023/11/10 06:13:55;;;;;;;1.17;1.17;;;7.50;99.90;;;;;;5062321;28;20092;-92
2023/11/10 06:16:21;;;;;;;1.83;0.70;;;7.50;99.90;;;;;;5063716;28;20033;-92
2023/11/10 06:18:47;;;;;;;0.85;0.85;;;7.60;99.90;;;;;;5042878;28;20025;-90
2023/11/10 06:21:21;;;;;;;0.85;0.85;;;7.60;99.90;;;;;;5066610;28;20037;-94
2023/11/10 06:23:49;;;;;;;2.35;0.98;;;7.50;99.90;;;;;;5067578;28;20021;-94
2023/11/10 06:26:17;;;;;;;0.93;0.93;;;7.50;99.90;;;;;;5058552;28;20021;-93
2023/11/10 06:28:43;;;;;;;1.90;1.65;;;7.50;99.90;;;;;;5067843;28;20016;-95
2023/11/10 06:31:11;;;;;;;0.75;0.75;;;7.40;99.90;;;;;;5065464;28;20103;-95
2023/11/10 06:33:41;;;;;;;1.42;0.98;;;7.40;99.90;;;;;;5056107;28;20033;-93
2023/11/10 06:36:08;;;;;;;1.45;1.35;;;7.40;99.90;;;;;;5047524;28;20037;-95
2023/11/10 06:38:46;;;;;;;1.23;1.10;;;7.40;99.90;;;;;;5051411;28;20018;-93
2023/11/10 06:41:21;;;;;;;5.32;1.38;;;7.40;99.90;;;;;;5055352;28;20029;-92
2023/11/10 06:43:48;;;;;;;1.25;0.85;;;7.40;99.90;;;;;;5038232;28;20029;-93
2023/11/10 06:46:23;;;;;;;1.90;1.20;;;7.40;99.90;;;;;;5059575;28;20025;-91
2023/11/10 06:48:53;;;;;;;2.88;1.15;;;7.40;99.90;;;;;;5036816;23;20501;-90
2023/11/10 06:51:19;;;;;;;2.92;1.30;;;7.40;99.90;;;;;;5036697;28;20018;-90
2023/11/10 06:53:45;;;;;;;3.75;1.60;;;7.40;99.90;;;;;;5041986;28;20025;-90
2023/11/10 06:56:11;;;;;;;2.53;1.85;;;7.40;99.90;;;;;;5036094;28;20480;-89
2023/11/10 06:58:37;;;;;;;2.08;1.38;;;7.40;99.90;;;;;;5032356;28;20033;-90
2023/11/10 07:01:05;;;;;;;2.28;1.75;;;7.40;99.90;;;;;;5040707;28;20047;-92
2023/11/10 07:03:31;;;;;;;4.20;1.95;;;7.50;99.90;;;;;;5043852;28;20488;-89
2023/11/10 07:05:57;;;;;;;2.15;1.80;;;7.50;99.90;;;;;;5044248;28;20045;-90
2023/11/10 07:08:23;;;;;;;2.80;2.08;;;7.50;99.90;;;;;;5037430;28;21280;-89
2023/11/10 07:10:53;;;;;;;2.05;1.85;;;7.50;99.90;;;;;;5039232;28;20032;-90
2023/11/10 07:13:21;;;;;;;2.53;1.83;;;7.60;99.90;;;;;;5037936;28;20017;-90
2023/11/10 07:15:48;;;;;;;2.60;1.45;;;7.60;99.90;;;;;;5042142;28;20100;-90
2023/11/10 07:18:13;;;;;;;2.40;1.92;;;7.60;99.90;;;;;;5036425;28;20140;-89
2023/11/10 07:20:44;;;;;;;2.00;1.58;;;7.70;99.90;;;;;;5042983;28;20198;-89
2023/11/10 07:23:10;;;;;;;2.10;1.75;;;7.70;99.90;;;;;;5046351;28;20403;-89
2023/11/10 07:25:37;;;;;;;3.20;1.92;;;7.70;99.90;;;;;;5037915;28;20042;-89
2023/11/10 07:28:03;;;;;;;2.40;1.80;;;7.80;99.90;;;;;;5037933;28;20025;-90
2023/11/10 07:30:29;;;;;;;2.33;1.88;;;7.80;99.90;;;;;;5047282;28;20044;-91
2023/11/10 07:32:55;;;;;;;3.15;2.13;;;7.80;99.90;;;;;;5040376;28;20037;-89
2023/11/10 07:35:21;;;;;;;3.25;1.73;;;7.80;99.90;;;;;;5035213;28;20033;-89
2023/11/10 07:37:48;;;;;;;2.13;0.98;;;7.80;99.90;;;;;;5040816;28;20128;-90
2023/11/10 07:40:15;;;;;;;2.22;1.73;;;7.90;99.90;;;;;;5038817;28;20040;-90
2023/11/10 07:42:44;;;;;;;3.38;1.70;;;7.90;99.90;;;;;;5039190;28;20098;-90
2023/11/10 07:45:16;;;;;;;2.22;1.75;;;8.00;99.90;;;;;;5042419;28;20052;-89
2023/11/10 07:47:42;;;;;;;3.47;1.33;;;8.00;99.90;;;;;;5042134;28;20049;-90
2023/11/10 07:50:09;;;;;;;1.40;1.30;;;8.00;99.90;;;;;;5036817;28;20120;-89
2023/11/10 07:52:38;;;;;;;2.08;1.98;;;8.00;99.90;;;;;;5037899;28;20103;-89
2023/11/10 07:55:04;;;;;;;1.45;0.82;;;8.00;99.90;;;;;;5038536;28;20043;-88
2023/11/10 07:57:31;;;;;;;1.73;0.93;;;8.10;99.90;;;;;;5038370;28;20036;-90
2023/11/10 07:59:59;;;;;;;1.40;1.30;;;8.10;99.90;;;;;;5036756;28;20044;-89
2023/11/10 08:02:25;;;;;;;1.65;1.45;;;8.10;99.90;;;;;;5037005;28;20105;-91
2023/11/10 08:04:50;;;;;;;2.65;1.75;;;8.10;99.90;;;;;;5042168;28;20036;-89
2023/11/10 08:07:16;;;;;;;1.35;1.25;;;8.10;99.90;;;;;;5039846;28;20035;-89
2023/11/10 08:09:41;;;;;;;3.13;2.58;;;8.20;99.90;;;;;;5044534;28;21205;-89
2023/11/10 08:12:07;;;;;;;4.05;1.48;;;8.10;99.90;;;;;;5040582;28;20056;-90
2023/11/10 08:14:33;;;;;;;5.57;2.65;;;8.10;99.90;;;;;;5035155;28;20034;-90
2023/11/10 08:16:58;;;;;;;6.55;3.08;;;8.20;99.90;;;;;;5048221;28;20033;-90
2023/11/10 08:19:24;;;;;;;5.13;2.42;;;8.20;99.90;;;;;;5041236;28;20112;-89
2023/11/10 08:21:52;;;;;;;4.85;2.40;;;8.20;99.90;;;;;;5042699;28;20068;-89
2023/11/10 08:24:18;;;;;;;4.68;1.63;;;8.20;99.90;;;;;;5042758;28;20036;-89
2023/11/10 08:26:44;;;;;;;1.83;1.27;;;8.20;99.90;;;;;;5038947;28;20079;-88
2023/11/10 08:29:09;;;;;;;1.42;1.30;;;8.20;99.90;;;;;;5032547;28;20041;-88
2023/11/10 08:31:35;;;;;;;1.58;1.45;;;8.30;99.90;;;;;;5039560;28;20040;-90
2023/11/10 08:34:01;;;;;;;1.30;1.20;;;8.30;99.90;;;;;;5036186;28;20124;-88
2023/11/10 08:36:28;;;;;;;1.65;1.55;;;8.30;99.90;;;;;;5034813;28;20037;-89
2023/11/10 08:38:57;;;;;;;3.70;1.88;;;8.30;99.90;;;;;;5031752;28;20053;-90
2023/11/10 08:41:23;;;;;;;2.13;1.83;;;8.40;99.90;;;;;;5038703;28;20021;-90
2023/11/10 08:43:49;;;;;;;1.92;1.52;;;8.50;99.90;;;;;;5031989;28;20018;-89
2023/11/10 08:46:15;;;;;;;1.52;1.42;;;8.50;99.90;;;;;;5037965;28;20025;-91
2023/11/10 08:48:42;;;;;;;1.50;1.40;;;8.60;99.90;;;;;;5035169;28;20036;-89
2023/11/10 08:51:08;;;;;;;1.50;1.27;;;8.50;99.90;;;;;;5037198;28;20026;-88
2023/11/10 08:53:33;;;;;;;4.22;1.60;;;8.50;99.90;;;;;;5037126;28;20041;-90
2023/11/10 08:56:01;;;;;;;1.67;1.55;;;8.60;99.90;;;;;;5034895;28;20120;-90
2023/11/10 08:58:27;;;;;;;2.55;1.85;;;8.60;99.90;;;;;;5040631;28;20060;-88
2023/11/10 09:00:53;;;;;;;2.17;1.60;;;8.60;99.90;;;;;;5040854;28;20025;-89
2023/11/10 09:03:19;;;;;;;2.60;1.48;;;8.60;99.90;;;;;;5042213;28;20134;-90
2023/11/10 09:05:44;;;;;;;2.67;1.58;;;8.60;99.90;;;;;;5039232;28;20024;-89
2023/11/10 09:08:10;;;;;;;2.75;1.80;;;8.70;99.90;;;;;;5041898;28;20021;-90
2023/11/10 09:10:36;;;;;;;2.17;1.45;;;8.70;99.90;;;;;;5042485;28;20037;-92
2023/11/10 09:13:02;;;;;;;2.00;1.38;;;8.70;99.90;;;;;;5048495;28;20052;-89
2023/11/10 09:15:29;;;;;;;2.40;1.38;;;8.70;99.90;;;;;;5036569;28;20040;-89
2023/11/10 09:17:55;;;;;;;4.20;2.55;;;8.80;99.90;;;;;;5038639;28;20088;-88
2023/11/10 09:20:24;;;;;;;1.95;1.35;;;9.00;99.90;;;;;;5039728;28;20144;-90
2023/11/10 09:22:49;;;;;;;2.78;0.80;;;9.00;99.90;;;;;;5039798;28;20027;-91
2023/11/10 09:25:19;;;;;;;2.47;1.05;;;9.10;99.90;;;;;;5041829;28;20116;-87
2023/11/10 09:27:46;;;;;;;2.97;1.52;;;9.10;99.90;;;;;;5039580;28;20048;-89
2023/11/10 09:30:12;;;;;;;1.25;1.15;;;9.10;99.90;;;;;;5037197;28;20171;-89
2023/11/10 09:32:38;;;;;;;1.40;1.30;;;9.10;99.90;;;;;;5037540;28;20036;-90
2023/11/10 09:35:07;;;;;;;3.05;1.67;;;9.20;99.90;;;;;;5044792;28;20033;-90
2023/11/10 09:37:33;;;;;;;1.88;1.45;;;9.20;97.60;;;;;;5038004;28;20029;-89
2023/11/10 09:39:59;;;;;;;1.48;1.38;;;9.20;96.20;;;;;;5044047;28;20032;-89
2023/11/10 09:42:26;;;;;;;2.40;1.83;;;9.20;96.10;;;;;;5042611;28;20507;-90
2023/11/10 09:44:53;;;;;;;3.42;1.38;;;9.40;96.30;;;;;;5034531;28;20017;-90
2023/11/10 09:47:24;;;;;;;2.05;1.75;;;9.50;95.50;;;;;;5034963;28;20115;-90
2023/11/10 09:49:53;;;;;;;1.92;1.42;;;9.60;95.20;;;;;;5035441;28;20033;-91
2023/11/10 09:52:20;;;;;;;1.58;1.48;;;9.60;89.50;;;;;;5036030;28;20054;-89
2023/11/10 09:54:52;;;;;;;2.33;1.58;;;9.60;87.00;;;;;;5037470;28;20030;-91
2023/11/10 09:57:18;;;;;;;2.10;1.70;;;9.70;90.80;;;;;;5036887;28;20026;-91
2023/11/10 09:59:47;;;;;;;2.25;1.20;;;9.60;88.40;;;;;;5037513;28;20562;-90
2023/11/10 10:02:14;;;;;;;1.95;1.85;;;9.70;90.30;;;;;;5038067;28;20052;-90
2023/11/10 10:04:43;;;;;;;2.40;1.30;;;9.80;88.60;;;;;;5036536;28;20032;-89
2023/11/10 10:07:11;;;;;;;1.13;1.02;;;9.70;88.60;;;;;;5038143;28;20022;-88
2023/11/10 10:09:37;;;;;;;2.53;1.60;;;9.80;89.50;;;;;;5046302;28;20026;-90
2023/11/10 10:12:04;;;;;;;1.90;1.10;;;9.80;90.80;;;;;;5045244;28;20538;-89
2023/11/10 10:14:29;;;;;;;1.98;1.73;;;9.90;91.80;;;;;;5043925;28;20028;-89
2023/11/10 10:16:56;;;;;;;3.17;2.30;;;9.90;90.10;;;;;;5035219;28;20022;-88
2023/11/10 10:19:23;;;;;;;1.60;1.20;;;10.00;91.00;;;;;;5030525;28;20048;-91
2023/11/10 10:21:49;;;;;;;1.40;1.30;;;10.10;90.30;;;;;;5036691;28;20024;-89
2023/11/10 10:24:15;;;;;;;1.70;1.60;;;9.90;90.90;;;;;;5038041;28;20041;-90
2023/11/10 10:26:40;;;;;;;3.15;1.67;;;10.00;91.90;;;;;;5037681;28;20049;-90
2023/11/10 10:29:07;;;;;;;1.45;1.23;;;10.00;88.80;;;;;;5046007;28;20086;-91
2023/11/10 10:31:33;;;;;;;2.33;0.85;;;10.00;89.60;;;;;;5042066;28;20487;-89
2023/11/10 10:34:04;;;;;;;4.13;1.17;;;10.10;90.10;;;;;;5036043;28;20029;-90
2023/11/10 10:36:31;;;;;;;3.58;1.48;;;9.90;89.30;;;;;;5037342;28;20033;-90
2023/11/10 10:38:58;;;;;;;1.83;1.20;;;9.80;89.80;;;;;;5036153;28;20415;-89
2023/11/10 10:41:29;;;;;;;2.08;1.38;;;9.80;89.00;;;;;;5036510;28;20026;-90
2023/11/10 10:43:58;;;;;;;1.15;0.93;;;9.90;91.20;;;;;;5044454;28;20054;-92
2023/11/10 10:46:24;;;;;;;2.17;1.30;;;9.80;85.90;;;;;;5042425;28;20407;-91
2023/11/10 10:48:52;;;;;;;1.38;1.27;;;9.80;82.20;;;;;;5044527;28;20036;-90
2023/11/10 10:51:18;;;;;;;;;;;9.90;83.30;;;;;;5036199;28;20032;-90
2023/11/10 10:53:49;;;;;;;2.38;1.35;;;9.90;80.00;;;;;;5045510;28;20507;-91
2023/11/10 10:56:15;;;;;;;1.60;1.20;;;9.90;77.60;;;;;;5037208;28;20113;-88
2023/11/10 10:58:41;;;;;;;2.58;1.35;;;9.80;79.00;;;;;;5045066;28;20061;-89
2023/11/10 11:01:11;;;;;;;2.38;1.35;;;9.80;75.70;;;;;;5037271;28;20037;-89
2023/11/10 11:03:55;;;;;;;3.15;1.20;;;9.80;78.10;;;;;;5037412;28;20119;-89
2023/11/10 11:06:30;;;;;;;2.05;1.15;;;10.00;77.50;;;;;;5042685;28;20025;-88
2023/11/10 11:09:10;;;;;;;2.38;1.90;;;10.00;77.30;;;;;;5039058;28;20036;-89
2023/11/10 11:11:48;;;;;;;1.85;1.65;;;9.90;77.80;;;;;;5036482;28;20045;-89
2023/11/10 11:14:37;;;;;;;2.25;1.63;;;9.90;78.60;;;;;;5033932;28;20113;-90
2023/11/10 11:17:35;;;;;;;4.20;1.63;;;9.80;78.10;;;;;;5036240;28;20032;-91
2023/11/10 11:20:03;;;;;;;3.55;1.42;;;9.80;80.30;;;;;;5039767;28;20029;-89
2023/11/10 11:22:30;;;;;;;2.22;1.23;;;10.00;80.30;;;;;;5046834;28;20125;-87
2023/11/10 11:25:08;;;;;;;2.38;0.98;;;10.50;78.20;;;;;;5045976;28;20022;-89
2023/11/10 11:27:34;;;;;;;1.85;0.65;;;10.80;76.20;;;;;;5037682;28;20548;-89
2023/11/10 11:30:07;;;;;;;2.30;1.60;;;10.60;74.70;;;;;;5034844;28;20030;-90
2023/11/10 11:32:33;;;;;;;1.95;1.17;;;10.30;75.00;;;;;;5044869;28;20026;-89
2023/11/10 11:34:59;;;;;;;2.80;1.27;;;10.10;76.60;;;;;;5042741;28;20508;-91
2023/11/10 11:37:31;;;;;;;2.05;0.88;;;10.00;78.00;;;;;;5035733;28;20116;-91
2023/11/10 11:39:59;;;;;;;1.98;1.75;;;10.00;76.90;;;;;;5034906;28;20025;-92
2023/11/10 11:42:38;;;;;;;2.85;1.45;;;10.20;77.10;;;;;;5036021;28;20039;-90
2023/11/10 11:45:13;;;;;;;3.05;1.55;;;10.30;77.70;;;;;;5043788;28;20017;-88
2023/11/10 11:47:39;;;;;;;2.47;1.25;;;10.30;80.00;;;;;;5035455;28;20021;-88
2023/11/10 11:50:06;;;;;;;4.13;2.78;;;10.30;80.90;;;;;;5035630;28;20041;-88
2023/11/10 11:52:36;;;;;;;1.30;0.93;;;10.20;81.40;;;;;;5035616;28;20033;-90
2023/11/10 11:55:03;;;;;;;3.08;2.10;;;10.30;82.80;;;;;;5034301;28;20025;-88
2023/11/10 11:57:34;;;;;;;4.07;1.55;;;10.30;79.70;;;;;;5041203;28;20025;-90
2023/11/10 12:00:07;;;;;;;3.03;1.38;;;10.40;77.40;;;;;;5045063;28;20479;-90
2023/11/10 12:02:40;;;;;;;2.28;0.60;;;10.60;76.80;;;;;;5034497;28;20807;-89
2023/11/10 12:05:07;;;;;;;1.50;1.05;;;11.40;74.90;;;;;;5037775;28;20064;-88
2023/11/10 12:07:33;;;;;;;1.30;0.93;;;12.00;72.50;;;;;;5041192;28;20028;-90
2023/11/10 12:09:59;;;;;;;4.25;2.53;;;12.40;71.20;;;;;;5049816;28;20114;-88
2023/11/10 12:12:26;;;;;;;1.88;1.17;;;12.80;69.80;;;;;;5029447;28;20049;-90
2023/11/10 12:14:52;;;;;;;1.27;0.88;;;13.40;64.00;;;;;;5035176;28;20022;-90
2023/11/10 12:17:18;;;;;;;1.52;1.00;;;13.10;65.30;;;;;;5036343;28;20476;-90
2023/11/10 12:19:44;;;;;;;1.30;1.20;;;13.10;63.70;;;;;;5035659;28;20032;-89
2023/11/10 12:22:09;;;;;;;2.28;0.98;;;13.10;66.30;;;;;;5036936;28;20065;-90
2023/11/10 12:24:35;;;;;;;1.38;1.17;;;13.30;64.80;;;;;;5036089;28;20028;-90
2023/11/10 12:27:02;;;;;;;2.25;1.27;;;13.60;64.30;;;;;;5033202;28;20104;-89
2023/11/10 12:29:29;;;;;;;2.65;1.23;;;13.30;65.40;;;;;;5033198;28;20021;-90
2023/11/10 12:31:55;;;;;;;1.60;1.13;;;13.40;64.30;;;;;;5040614;28;20120;-90
2023/11/10 12:34:26;;;;;;;2.20;1.33;;;13.40;65.90;;;;;;5041420;28;20059;-91
2023/11/10 12:36:51;;;;;;;3.40;1.20;;;13.50;64.80;;;;;;5041631;28;20032;-89
2023/11/10 12:39:17;;;;;;;2.20;1.08;;;13.60;66.40;;;;;;5041751;28;20025;-92
2023/11/10 12:41:55;;;;;;;1.20;1.10;;;13.90;65.60;;;;;;5030364;28;20014;-88
2023/11/10 12:44:22;;;;;;;1.63;0.90;;;13.80;64.70;;;;;;5028186;28;20021;-90
2023/11/10 12:46:56;;;;;;;2.00;1.15;;;13.20;66.30;;;;;;5039103;28;20016;-90
2023/11/10 12:49:26;;;;;;;1.67;0.93;;;13.10;67.60;;;;;;5048126;28;20037;-90
2023/11/10 12:51:53;;;;;;;2.38;1.40;;;13.30;66.40;;;;;;5036402;28;20156;-90
2023/11/10 12:54:24;;;;;;;1.70;0.70;;;12.20;63.80;;;;;;5034811;28;20033;-89
2023/11/10 12:56:50;;;;;;;2.20;0.98;;;11.80;65.00;;;;;;5034645;28;20217;-90